DRI Storm Peak Lab. Weather observations

Data are for 5 minute period ending at time listed.
 Day   Time    Ave.   Ave.  Ave.  Vector  Max.   Total    Baro.    Solar      Aerosol      Ave.  Ultrafine   Snow  
  of    of     Air    Rel.  Wind   Wind   Wind  Precip.   Pres.  Radiation   Aerosol      Ozone   Aerosol    Depth 
Year   Day     Temp.  Hum.  Speed  Dir.   Gust                               Ave.   Max.            Ave.           
2014   (MST)    F      %     mph   deg.    mph    in.      mb.     w/m2         #/cm3      ppbv    #/cm3      in.  
-------------------------------------------------------------------------------------------------------------------
 273   15:55   29.8   100    1.8   215     2.4   999.00    686.2      0.0    -1421       0   999.0        0     0.0
 273   16:00   29.7   100    1.8   212     2.0   999.00    686.3      0.0    -1422       0   999.0        0     0.0
 273   16:05   29.7   100    1.8   233     2.0   999.00    686.3      0.0    -1421       0   999.0        0     0.0
 273   16:10   29.5   100    2.3   258     6.3   999.00    686.3      0.0    -1422       0   999.0        0     0.0
 273   16:15   29.3   100   10.4   240    24.9   999.00    686.5      0.0    -1422       0   999.0        0     0.0
 273   16:20   29.3   100   12.7   234    26.7   999.00    686.4      0.0    -1422       0   999.0        0     0.0
 273   16:25   29.4   100   10.5   235    20.6   999.00    686.5      0.0    -1422       0   999.0        0     0.0
 273   16:30   29.3   100    8.9   233    22.6   999.00    686.5      0.0    -1422       0   999.0        0     0.0
 273   16:35   29.3   100    9.6   233    25.1   999.00    686.6      0.0    -1422       0   999.0        0     0.0
 273   16:40   29.3   100   12.9   230    30.5   999.00    686.6      0.0    -1422       0   999.0        0     0.0
 273   16:45   29.4   100   11.0   230    32.1   999.00    686.6      0.0    -1422       0   999.0        0     0.0
 273   16:50   29.4   100   17.1   231    28.8   999.00    686.5      0.0    -1422       0   999.0        0     0.0
 273   16:55   29.4   100   11.1   237    19.7   999.00    686.6      0.0    -1422       0   999.0        0     0.0
 273   17:00   29.4   100    9.8   237    16.5   999.00    686.6      0.0    -1422       0   999.0        0     0.0
 273   17:05   29.3   100   12.6   236    20.0   999.00    686.6      0.0    -1422       0   999.0        0     0.0
 273   17:10   29.3   100   11.5   235    17.8   999.00    686.7      0.0    -1422       0   999.0        0     0.0
 273   17:15   29.4   100   12.4   235    18.7   999.00    686.7      0.0    -1422       0   999.0        0     0.0
 273   17:20   29.4   100    8.0   239    18.2   999.00    686.7      0.0    -1422       0   999.0        0     0.0
 273   17:25   29.4   100    9.8   241    17.8   999.00    686.7      0.0    -1422       0   999.0        0     0.0
 273   17:30   29.4   100   10.6   240    16.1   999.00    686.7      0.0    -1422       0   999.0        0     0.0
 273   17:35   29.4   100   11.9   236    20.8   999.00    686.8      0.0    -1422       0   999.0        0     0.0
 273   17:40   29.4   100    8.9   240    17.2   999.00    686.8      0.0    -1422       0   999.0        0     0.0
 273   17:45   29.5   100   11.5   235    20.8   999.00    686.8      0.0    -1422       0   999.0        0     0.0
 273   17:50   29.5   100   10.5   234    15.8   999.00    686.8      0.0    -1422       0   999.0        0     0.0
 273   17:55   29.5   100    9.6   238    16.5   999.00    686.9      0.0    -1422       0   999.0        0     0.0
 273   18:00   29.5   100    8.3   237    14.8   999.00    686.9      0.0    -1423       0   999.0        0     0.0
 273   18:05   29.5   100    9.5   234    15.4   999.00    687.0      0.0    -1423       0   999.0        0     0.0
 273   18:10   29.5   100   10.6   235    19.7   999.00    687.0      0.0    -1423       0   999.0        0     0.0
 273   18:15   29.5   100   10.7   237    15.6   999.00    687.0      0.0    -1423       0   999.0        0     0.0
 273   18:20   29.5   100   10.5   234    16.1   999.00    687.1      0.0    -1423       0   999.0        0     0.0
 273   18:25   29.5   100   11.9   231    17.4   999.00    687.2      0.0    -1423       0   999.0        0     0.0
 273   18:30   29.5   100   11.7   232    16.1   999.00    687.3      0.0    -1423       0   999.0        0     0.0
 273   18:35   29.7   100   11.9   232    18.4   999.00    687.3      0.0    -1423       0   999.0        0     0.0
 273   18:40   29.9   100   13.5   233    18.4   999.00    687.3      0.0    -1423       0   999.0        0     0.0
 273   18:45   30.1   100   15.2   231    20.6   999.00    687.3      0.0    -1423       0   999.0        0     0.0
 273   18:50   30.2   100   18.0   230    29.2   999.00    687.3      0.0    -1423       0   999.0        0     0.0
 273   18:55   30.4   100   20.4   229    29.9   999.00    687.3      0.0    -1423       0   999.0        0     0.0
 273   19:00   30.6   100   18.0   230    26.7   999.00    687.3      0.0    -1424       0   999.0        0     0.0
 273   19:05   30.6   100   19.5   232    29.3   999.00    687.3      0.0    -1424       0   999.0        0     0.0
 273   19:10   30.4   100    8.5   247    18.7   999.00    687.2      0.0    -1423       0   999.0        0     0.0
 273   19:15   30.3   100    5.4   290    17.4   999.00    687.4      0.0    -1424       0   999.0        0     0.0
 273   19:20   30.1   100    2.9   308     9.4   999.00    687.3      0.0    -1424       0   999.0        0     0.0
 273   19:25   29.8   100    3.1   329     9.2   999.00    687.4      0.0    -1424       0   999.0        0     0.0
 273   19:30   29.3   100    3.2   322     8.3   999.00    687.3      0.0    -1424       0   999.0        0     0.0
 273   19:35   29.2   100    2.7   319     4.8   999.00    687.3      0.0    -1424       0   999.0        0     0.0
 273   19:40   29.3   100    3.3   312    12.6   999.00    687.3      0.0    -1424       0   999.0        0     0.0
 273   19:45   29.5   100    4.6   297    20.4   999.00    687.3      0.0    -1424       0   999.0        0     0.0
 273   19:50   29.7   100    4.1   299     9.2   999.00    687.4      0.0    -1425       0   999.0        0     0.0
 273   19:55   29.8   100    4.6   298    11.3   999.00    687.5      0.0    -1425       0   999.0        0     0.0
 273   20:00   29.8   100    7.7   277    18.7   999.00    687.6      0.0    -1425       0   999.0        0     0.0
 273   20:05   29.8   100    8.4   271    22.3   999.00    687.7      0.0    -1425       0   999.0        0     0.0
 273   20:10   29.8   100   10.1   271    24.7   999.00    687.7      0.0    -1425       0   999.0        0     0.0
 273   20:15   29.8   100   10.6   265    17.2   999.00    687.7      0.0    -1425       0   999.0        0     0.0
 273   20:20   29.8   100   13.9   264    21.3   999.00    687.7      0.0    -1425       0   999.0        0     0.0
 273   20:25   29.8   100   12.7   264    20.6   999.00    687.7      0.0    -1426       0   999.0        0     0.0
 273   20:30   29.8   100   10.0   271    15.8   999.00    687.8      0.0    -1426       0   999.0        0     0.0
 273   20:35   29.8   100    7.3   280    13.3   999.00    687.7      0.0    -1426       0   999.0        0     0.0
 273   20:40   29.8   100    6.0   278    10.7   999.00    687.8      0.0    -1426       0   999.0        0     0.0
 273   20:45   29.8   100    7.3   282    11.1   999.00    687.7      0.0    -1426       0   999.0        0     0.0
 273   20:50   29.8   100    8.0   276    16.7   999.00    687.7      0.0    -1426       0   999.0        0     0.0
 273   20:55   29.7   100    8.2   272    16.5   999.00    687.6      0.0    -1426       0   999.0        0     0.0
 273   21:00   29.6   100    7.6   276    13.7   999.00    687.6      0.0    -1426       0   999.0        0     0.0
 273   21:05   29.7   100    6.7   285    15.9   999.00    687.6      0.0    -1426       0   999.0        0     0.0
 273   21:10   29.7   100    5.3   289    10.7   999.00    687.6      0.0    -1426       0   999.0        0     0.0
 273   21:15   29.7   100    6.6   288    15.6   999.00    687.6      0.0    -1426       0   999.0        0     0.0
 273   21:20   29.7   100    5.9   288    15.4   999.00    687.5      0.0    -1426       0   999.0        0     0.0
 273   21:25   29.6   100    8.2   287    17.6   999.00    687.5      0.0    -1426       0   999.0        0     0.0
 273   21:30   29.5   100    4.3   291    13.0   999.00    687.5      0.0    -1426       0   999.0        0     0.0
 273   21:35   29.5   100    2.7   297     6.3   999.00    687.5      0.0    -1425       0   999.0        0     0.0
 273   21:40   29.5   100    7.2   271    15.6   999.00    687.5      0.0    -1425       0   999.0        0     0.0
 273   21:45   29.5   100   10.7   248    16.3   999.00    687.5      0.0    -1426       0   999.0        0     0.0
 273   21:50   29.5   100   10.9   265    16.5   999.00    687.5      0.0    -1425       0   999.0        0     0.0
 273   21:55   29.5   100    9.7   254    20.2   999.00    687.5      0.0    -1426       0   999.0        0     0.0
 273   22:00   29.6   100   13.2   239    18.0   999.00    687.4      0.0    -1425       0   999.0        0     0.0
 273   22:05   29.6   100   13.7   240    18.2   999.00    687.5      0.0    -1425       0   999.0        0     0.0
 273   22:10   29.7   100    9.4   240    14.3   999.00    687.5      0.0    -1426       0   999.0        0     0.0
 273   22:15   29.7   100   12.3   238    15.0   999.00    687.5      0.0    -1425       0   999.0        0     0.0
 273   22:20   29.7   100   14.1   236    20.4   999.00    687.5      0.0    -1425       0   999.0        0     0.0
 273   22:25   29.9   100   12.7   236    17.4   999.00    687.5      0.0    -1425       0   999.0        0     0.0
 273   22:30   30.0   100   15.3   225    21.5   999.00    687.5      0.0    -1425       0   999.0        0     0.0
 273   22:35   30.1   100   12.9   220    19.7   999.00    687.5      0.0    -1425       0   999.0        0     0.0
 273   22:40   30.2   100   12.4   222    15.9   999.00    687.5      0.0    -1425       0   999.0        0     0.0
 273   22:45   30.2   100   13.3   223    17.1   999.00    687.5      0.0    -1425       0   999.0        0     0.0
 273   22:50   30.0   100   13.0   223    17.8   999.00    687.4      0.0    -1425       0   999.0        0     0.0
 273   22:55   29.9   100    9.5   223    13.0   999.00    687.4      0.0    -1425       0   999.0        0     0.0
 273   23:00   29.9   100   11.5   216    18.7   999.00    687.4      0.0    -1425       0   999.0        0     0.0
 273   23:05   29.8   100   15.3   208    20.8   999.00    687.4      0.0    -1425       0   999.0        0     0.0
 273   23:10   29.7   100   10.9   204    14.4   999.00    687.4      0.0    -1425       0   999.0        0     0.0
 273   23:15   29.6   100   12.0   200    15.9   999.00    687.5      0.0    -1425       0   999.0        0     0.0
 273   23:20   29.5   100   14.2   194    17.2   999.00    687.5      0.0    -1425       0   999.0        0     0.0
 273   23:25   29.4   100   14.1   187    16.7   999.00    687.5      0.0    -1425       0   999.0        0     0.0
 273   23:30   29.4   100   10.9   179    15.6   999.00    687.5      0.0    -1425       0   999.0        0     0.0
 273   23:35   29.4   100   13.8   171    19.9   999.00    687.5      0.0    -1425       0   999.0        0     0.0
 273   23:40   29.3   100   16.8   207    23.4   999.00    687.4      0.0    -1424       0   999.0        0     0.0
 273   23:45   29.2   100   14.4   222    18.9   999.00    687.3      0.0    -1424       0   999.0        0     0.0
 273   23:50   29.1   100   12.2   218    17.4   999.00    687.3      0.0    -1424       0   999.0        0     0.0
 273   23:55   29.0   100   13.1   216    17.6   999.00    687.3      0.0    -1424       0   999.0        0     0.0
 274    0:00   29.0   100   14.9   215    19.5   999.00    687.2      0.0    -1424       0   999.0        0     0.0
 274    0:05   28.8   100   11.7   216    19.3   999.00    687.4      0.0    -1424       0   999.0        0     0.0
 274    0:10   28.7   100   12.0   217    20.0   999.00    687.4      0.0    -1424       0   999.0        0     0.0
 274    0:15   28.6   100   12.6   217    17.1   999.00    687.3      0.0    -1424       0   999.0        0     0.0
 274    0:20   28.6   100   11.8   220    16.1   999.00    687.3      0.0    -1424       0   999.0        0     0.0
 274    0:25   28.6   100   14.6   223    19.3   999.00    687.2      0.0    -1424       0   999.0        0     0.0
 274    0:30   28.6   100   15.4   222    22.6   999.00    687.2      0.0    -1424       0   999.0        0     0.0
 274    0:35   28.8   100   15.8   223    19.9   999.00    687.2      0.0    -1424       0   999.0        0     0.0
 274    0:40   28.7   100   16.4   223    21.5   999.00    687.2      0.0    -1424       0   999.0        0     0.0
 274    0:45   28.8   100   14.5   223    20.2   999.00    687.2      0.0    -1424       0   999.0        0     0.0
 274    0:50   28.9   100   14.6   221    20.2   999.00    687.2      0.0    -1424       0   999.0        0     0.0
 274    0:55   28.9   100   14.2   220    20.2   999.00    687.2      0.0    -1424       0   999.0        0     0.0
 274    1:00   28.9   100   13.4   221    18.2   999.00    687.2      0.0    -1424       0   999.0        0     0.0
 274    1:05   28.9   100   14.4   220    20.6   999.00    687.1      0.0    -1424       0   999.0        0     0.0
 274    1:10   28.9   100   14.7   221    18.4   999.00    687.1      0.0    -1424       0   999.0        0     0.0
 274    1:15   29.1   100   17.0   220    22.8   999.00    687.1      0.0    -1424       0   999.0        0     0.0
 274    1:20   29.1   100   16.5   221    24.9   999.00    687.2      0.0    -1424       0   999.0        0     0.0
 274    1:25   29.2   100   14.8   223    18.5   999.00    687.2      0.0    -1424       0   999.0        0     0.0
 274    1:30   29.3   100   15.7   223    19.9   999.00    687.2      0.0    -1424       0   999.0        0     0.0
 274    1:35   29.3   100   15.0   223    19.9   999.00    687.2      0.0    -1424       0   999.0        0     0.0
 274    1:40   29.3   100   15.6   221    23.4   999.00    687.2      0.0    -1424       0   999.0        0     0.0
 274    1:45   29.2   100   15.7   223    20.6   999.00    687.2      0.0    -1424       0   999.0        0     0.0
 274    1:50   29.2   100   15.9   223    20.2   999.00    687.1      0.0    -1424       0   999.0        0     0.0
 274    1:55   29.2   100   16.7   224    21.0   999.00    687.1      0.0    -1424       0   999.0        0     0.0
 274    2:00   29.2   100   14.6   222    19.5   999.00    687.0      0.0    -1424       0   999.0        0     0.0
 274    2:05   29.3   100   16.5   224    20.8   999.00    687.0      0.0    -1423       0   999.0        0     0.0
 274    2:10   29.3   100   16.7   225    20.4   999.00    686.9      0.0    -1423       0   999.0        0     0.0
 274    2:15   29.3   100   17.2   226    21.5   999.00    686.9      0.0    -1423       0   999.0        0     0.0
 274    2:20   29.2   100   18.8   227    23.0   999.00    686.8      0.0    -1423       0   999.0        0     0.0
 274    2:25   29.2   100   15.0   236    19.5   999.00    686.7      0.0    -1423       0   999.0        0     0.0
 274    2:30   29.2   100   15.8   232    18.7   999.00    686.7      0.0    -1423       0   999.0        0     0.0
 274    2:35   29.3   100   13.8   230    19.7   999.00    686.8      0.0    -1423       0   999.0        0     0.0
 274    2:40   29.2   100   15.7   228    19.1   999.00    686.8      0.0    -1423       0   999.0        0     0.0
 274    2:45   29.2   100   15.7   233    18.9   999.00    686.7      0.0    -1423       0   999.0        0     0.0
 274    2:50   29.3   100   15.9   231    18.0   999.00    686.7      0.0    -1423       0   999.0        0     0.0
 274    2:55   29.4   100   15.5   230    20.0   999.00    686.6      0.0    -1423       0   999.0        0     0.0
 274    3:00   29.4   100   14.9   227    18.7   999.00    686.6      0.0    -1423       0   999.0        0     0.0
 274    3:05   29.4   100   15.2   226    18.0   999.00    686.6      0.0    -1423       0   999.0        0     0.0
 274    3:10   29.4   100   14.5   226    16.9   999.00    686.6      0.0    -1423       0   999.0        0     0.0
 274    3:15   29.4   100   12.6   223    17.6   999.00    686.6      0.0    -1423       0   999.0        0     0.0
 274    3:20   29.3   100   12.5   221    15.6   999.00    686.6      0.0    -1423       0   999.0        0     0.0
 274    3:25   29.3   100   12.6   220    17.8   999.00    686.6      0.0    -1423       0   999.0        0     0.0
 274    3:30   29.3   100   10.5   219    15.6   999.00    686.6      0.0    -1423       0   999.0        0     0.0
 274    3:35   29.3   100   11.3   220    15.2   999.00    686.6      0.0    -1423       0   999.0        0     0.0
 274    3:40   29.3   100    9.3   216    15.4   999.00    686.7      0.0    -1423       0   999.0        0     0.0
 274    3:45   29.3   100   12.4   223    17.2   999.00    686.7      0.0    -1423       0   999.0        0     0.0
 274    3:50   29.2   100   14.3   226    18.7   999.00    686.7      0.0    -1422       0   999.0        0     0.0
 274    3:55   29.2   100   10.8   225    13.5   999.00    686.6      0.0    -1422       0   999.0        0     0.0
 274    4:00   29.2   100    8.8   231    12.4   999.00    686.5      0.0    -1422       0   999.0        0     0.0
 274    4:05   29.3   100    7.1   217    10.0   999.00    686.5      0.0    -1422       0   999.0        0     0.0
 274    4:10   29.2   100    6.3   215     8.3   999.00    686.4      0.0    -1422       0   999.0        0     0.0
 274    4:15   29.2   100    9.0   220    12.2   999.00    686.4      0.0    -1422       0   999.0        0     0.0
 274    4:20   29.0   100    6.4   238    11.7   999.00    686.5      0.0    -1422       0   999.0        0     0.0
 274    4:25   29.0   100    7.7   236    10.7   999.00    686.4      0.0    -1422       0   999.0        0     0.0
 274    4:30   29.0   100    8.6   231    11.5   999.00    686.4      0.0    -1421       0   999.0        0     0.0
 274    4:35   29.1   100    7.7   229     9.8   999.00    686.4      0.0    -1421       0   999.0        0     0.0
 274    4:40   29.1   100    9.7   229    12.0   999.00    686.3      0.0    -1421       0   999.0        0     0.0
 274    4:45   29.2   100    9.8   223    12.2   999.00    686.3      0.0    -1421       0   999.0        0     0.0
 274    4:50   29.2   100    9.3   221    12.2   999.00    686.3      0.0    -1421       0   999.0        0     0.0
 274    4:55   29.2   100    9.4   222    11.1   999.00    686.3      0.0    -1421       0   999.0        0     0.0
 274    5:00   29.2   100    8.7   220    11.5   999.00    686.4      0.0    -1421       0   999.0        0     0.0
 274    5:05   29.3   100    9.4   216    13.7   999.00    686.4      0.0    -1421       0   999.0        0     0.0
 274    5:10   29.3   100    8.7   206    13.9   999.00    686.4      0.0    -1421       0   999.0        0     0.0
 274    5:15   29.3   100    5.9   205     8.3   999.00    686.4      0.0    -1421       0   999.0        0     0.0
 274    5:20   29.2   100    5.3   204     9.1   999.00    686.5      0.0    -1421       0   999.0        0     0.0
 274    5:25   29.3   100    5.1   203     7.0   999.00    686.4      0.0    -1421       0   999.0        0     0.0
 274    5:30   29.2   100    3.9   203     5.5   999.00    686.5      0.0    -1421       0   999.0        0     0.0
 274    5:35   29.2   100    3.8   203     5.9   999.00    686.5      0.0    -1421       0   999.0        0     0.0
 274    5:40   29.3   100    4.0   203     5.7   999.00    686.4      0.0    -1421       0   999.0        0     0.0
 274    5:45   29.3   100    3.4   203     6.5   999.00    686.5      0.0    -1421       0   999.0        0     0.0
 274    5:50   29.2   100    1.8   203     1.8   999.00    686.5      0.0    -1421       0   999.0        0     0.0
 274    5:55   29.3   100    2.0   203     3.1   999.00    686.6      0.0    -1421       0   999.0        0     0.0
 274    6:00   29.3   100    1.8   203     2.0   999.00    686.6      0.0    -1421       0   999.0        0     0.0
 274    6:05   29.3   100    1.8   203     1.8   999.00    686.5      0.0    -1421       0   999.0        0     0.0
 274    6:10   29.3   100    1.8   203     1.8   999.00    686.5      0.0    -1421       0   999.0        0     0.0
 274    6:15   29.2   100    2.0   203     3.5   999.00    686.6      0.0    -1421       0   999.0        0     0.0
 274    6:20   29.3   100    2.0   203     3.5   999.00    686.6      0.0    -1421       0   999.0        0     0.0
 274    6:25   29.3   100    2.0   203     2.7   999.00    686.5      0.0    -1421       0   999.0        0     0.0
 274    6:30   29.4   100    1.9   200     2.7   999.00    686.5      0.0    -1421       0   999.0        0     0.0
 274    6:35   29.5   100    2.1   176     4.4   999.00    686.5      0.0    -1421       0   999.0        0     0.0
 274    6:40   29.5   100    2.8   138     6.3   999.00    686.5      0.0    -1421       0   999.0        0     0.0
 274    6:45   29.6   100    2.2   109     3.5   999.00    686.5      0.0    -1421       0   999.0        0     0.0
 274    6:50   29.6   100    2.5    97     3.5   999.00    686.5      0.0    -1421       0   999.0        0     0.0
 274    6:55   29.6   100    3.8    90     5.7   999.00    686.5      0.0    -1421       0   999.0        0     0.0
 274    7:00   29.6   100    3.4    86     4.4   999.00    686.5      0.0    -1420       0   999.0        0     0.0
 274    7:05   29.6   100    2.1    78     3.1   999.00    686.5      0.0    -1420       0   999.0        0     0.0
 274    7:10   29.6   100    1.8    66     1.8   999.00    686.5      0.0    -1420       0   999.0        0     0.0
 274    7:15   29.8   100    1.8    43     1.8   999.00    686.4      0.0    -1420       0   999.0        0     0.0
 274    7:20   29.7   100    1.8    24     1.8   999.00    686.4      0.0    -1420       0   999.0        0     0.0
 274    7:25   29.4   100    1.8    24     1.8   999.00    686.4      0.0    -1420       0   999.0        0     0.0
 274    7:30   29.1   100    1.8    24     1.8   999.00    686.4      0.0    -1420       0   999.0        0     0.0
 274    7:35   29.1   100    1.8    24     1.8   999.00    686.4      0.0    -1420       0   999.0        0     0.0
 274    7:40   29.3   100    1.8    24     1.8   999.00    686.4      0.0    -1420       0   999.0        0     0.0
 274    7:45   29.2   100    1.8    21     1.8   999.00    686.4      0.0    -1420       0   999.0        0     0.0
 274    7:50   29.1   100    1.8     7     1.8   999.00    686.4      0.0    -1420       0   999.0        0     0.0
 274    7:55   28.8   100    1.8   338     1.8   999.00    686.3      0.0    -1419       0   999.0        0     0.0
 274    8:00   28.6   100    1.8   340     1.8   999.00    686.3      0.0    -1419       0   999.0        0     0.0
 274    8:05   28.3   100    1.8   335     1.8   999.00    686.3      0.0    -1419       0   999.0        0     0.0
 274    8:10   27.8   100    1.8   314     2.0   999.00    686.4      0.0    -1419       0   999.0        0     0.0
 274    8:15   27.4   100    1.9   303     3.3   999.00    686.4      0.0    -1419       0   999.0        0     0.0
 274    8:20   27.2   100    2.0   302     3.5   999.00    686.4      0.0    -1419       0   999.0        0     0.0
 274    8:25   26.8   100    1.8   312     2.0   999.00    686.4      0.0    -1419       0   999.0        0     0.0
 274    8:30   26.4   100    1.8   313     1.8   999.00    686.4      0.0    -1419       0   999.0        0     0.0
 274    8:35   26.2   100    1.8   309     1.8   999.00    686.4      0.0    -1419       0   999.0        0     0.0
 274    8:40   26.1   100    1.8   311     1.8   999.00    686.4      0.0    -1419       0   999.0        0     0.0
 274    8:45   26.1   100    1.8   310     1.8   999.00    686.4      0.0    -1419       0   999.0        0     0.0
 274    8:50   26.1   100    1.8   312     1.8   999.00    686.4      0.0    -1419       0   999.0        0     0.0
 274    8:55   26.2    99    1.8   317     1.8   999.00    686.5      0.0    -1419       0   999.0        0     0.0
 274    9:00   26.2    99    1.8   321     1.8   999.00    686.5      0.0    -1419       0   999.0        0     0.0
 274    9:05   26.2    99    1.8   315     1.8   999.00    686.6      0.0    -1419       0   999.0        0     0.0
 274    9:10   26.3    99    1.8   309     1.8   999.00    686.6      0.0    -1419       0   999.0        0     0.0
 274    9:15   26.5    99    1.8   314     1.8   999.00    686.6      0.0    -1419       0   999.0        0     0.0
 274    9:20   26.7    99    1.8   302     2.4   999.00    686.6      0.0    -1419       0   999.0        0     0.0
 274    9:25   26.8    99    1.8   323     1.8   999.00    686.6      0.0    -1419       0   999.0        0     0.0
 274    9:30   26.7    99    1.8   334     1.8   999.00    686.6      0.0    -1419       0   999.0        0     0.0
 274    9:35   26.5    99    1.8   338     1.8   999.00    686.6      0.0    -1419       0   999.0        0     0.0
 274    9:40   26.3    99    1.8   356     1.8   999.00    686.5      0.0    -1419       0   999.0        0     0.0
 274    9:45   26.1    99    1.8   358     1.8   999.00    686.5      0.0    -1419       0   999.0        0     0.0
 274    9:50   26.0    99    1.8   356     1.8   999.00    686.6      0.0    -1419       0   999.0        0     0.0
 274    9:55   26.0    99    1.8     1     1.8   999.00    686.6      0.0    -1419       0   999.0        0     0.0
 274   10:00   26.1    99    1.8   356     1.8   999.00    686.6      0.0    -1419       0   999.0        0     0.0
 274   10:05   26.2    99    1.8   346     1.8   999.00    686.6      0.0    -1419       0   999.0        0     0.0
 274   10:10   26.2    99    1.8   348     1.8   999.00    686.6      0.0    -1419       0   999.0        0     0.0
 274   10:15   26.4   100    1.8   359     1.8   999.00    686.7      0.0    -1419       0   999.0        0     0.0
 274   10:20   26.4   100    1.8   341     1.8   999.00    686.7      0.0    -1418       0   999.0        0     0.0
 274   10:25   26.7   100    1.8   346     1.8   999.00    686.7      0.0    -1418       0   999.0        0     0.0
 274   10:30   26.8   100    1.8   344     1.8   999.00    686.7      0.0    -1418       0   999.0        0     0.0
 274   10:35   27.0   100    1.8   347     1.8   999.00    686.8      0.0    -1418       0   999.0        0     0.0
 274   10:40   27.0   100    1.8   335     1.8   999.00    686.8      0.0    -1418       0   999.0        0     0.0
 274   10:45   27.0   100    1.8   344     1.8   999.00    686.8      0.0    -1418       0   999.0        0     0.0
 274   10:50   27.1   100    1.8   358     1.8   999.00    686.8      0.0    -1418       0   999.0        0     0.0
 274   10:55   27.3   100    1.8   350     1.8   999.00    686.8      0.0    -1418       0   999.0        0     0.0
 274   11:00   27.4   100    1.8   332     1.8   999.00    686.8      0.0    -1418       0   999.0        0     0.0
 274   11:05   27.5   100    1.8   338     1.8   999.00    686.8      0.0    -1418       0   999.0        0     0.0
 274   11:10   27.5   100    1.8   349     1.8   999.00    686.8      0.0    -1418       0   999.0        0     0.0
 274   11:15   27.8   100    1.8   357     1.8   999.00    686.7      0.0    -1418       0   999.0        0     0.0
 274   11:20   28.1   100    1.8     8     1.8   999.00    686.6      0.0    -1417       0   999.0        0     0.0
 274   11:25   28.4   100    1.8     5     1.8   999.00    686.6      0.0    -1417       0   999.0        0     0.0
 274   11:30   28.9   100    1.8   355     1.8   999.00    686.5      0.0    -1417       0   999.0        0     0.0
 274   11:35   29.2   100    1.8   322     2.0   999.00    686.6      0.0    -1417       0   999.0        0     0.0
 274   11:40   29.2   100    1.8   355     1.8   999.00    686.6      0.0    -1417       0   999.0        0     0.0
 274   11:45   29.3   100    1.8   354     1.8   999.00    686.6      0.0    -1417       0   999.0        0     0.0
 274   11:50   29.3   100    1.8   346     1.8   999.00    686.6      0.0    -1417       0   999.0        0     0.0
 274   11:55   29.1   100    1.8   348     1.8   999.00    686.5      0.0    -1416       0   999.0        0     0.0
 274   12:00   28.5   100    1.8     2     1.8   999.00    686.5      0.0    -1416       0   999.0        0     0.0
 274   12:05   28.2   100    2.0    12     4.6   999.00    686.5      0.0    -1416       0   999.0        0     0.0
 274   12:10   28.1   100    1.8     2     1.8   999.00    686.5      0.0    -1416       0   999.0        0     0.0
 274   12:15   27.8   100    1.8   336     1.8   999.00    686.7      0.0    -1416       0   999.0        0     0.0
 274   12:20   27.7   100    1.8   332     1.8   999.00    686.7      0.0    -1416       0   999.0        0     0.0
 274   12:25   27.6   100    1.8   334     1.8   999.00    686.6      0.0    -1416       0   999.0        0     0.0
 274   12:30   27.6   100    1.8   342     1.8   999.00    686.6      0.0    -1416       0   999.0        0     0.0
 274   12:35   27.8   100    1.8   353     1.8   999.00    686.7      0.0    -1416       0   999.0        0     0.0
 274   12:40   27.9   100    1.8   358     1.8   999.00    686.7      0.0    -1416       0   999.0        0     0.0
 274   12:45   28.0   100    1.8    13     1.8   999.00    686.7      0.0    -1416       0   999.0        0     0.0
 274   12:50   28.1   100    1.8    37     1.8   999.00    686.7      0.0    -1416       0   999.0        0     0.0
 274   12:55   28.7   100    1.8    17     1.8   999.00    686.7      0.0    -1416       0   999.0        0     0.0
 274   13:00   29.4   100    1.8    44     1.8   999.00    686.6      0.0    -1416       0   999.0        0     0.0
 274   13:05   29.8   100    1.8   353     1.8   999.00    686.6      0.0    -1416       0   999.0        0     0.0
 274   13:10   30.0   100    1.8     2     1.8   999.00    686.6      0.0    -1415       0   999.0        0     0.0
 274   13:15   30.3   100    1.8     1     2.0   999.00    686.6      0.0    -1415       0   999.0        0     0.0
 274   13:20   30.6   100    1.8     1     1.8   999.00    686.5      0.0    -1415       0   999.0        0     0.0
 274   13:25   30.8   100    1.8     1     2.0   999.00    686.5      0.0    -1415       0   999.0        0     0.0
 274   13:30   31.0   100    1.8   327     1.8   999.00    686.5      0.0    -1415       0   999.0        0     0.0
 274   13:35   30.9   100    1.8   354     1.8   999.00    686.5      0.0    -1415       0   999.0        0     0.0
 274   13:40   30.7   100    1.8   355     1.8   999.00    686.5      0.0    -1415       0   999.0        0     0.0
 274   13:45   30.6   100    1.8   357     1.8   999.00    686.5      0.0    -1415       0   999.0        0     0.0
 274   13:50   30.7   100    1.8   359     2.5   999.00    686.6      0.0    -1415       0   999.0        0     0.0
 274   13:55   30.7   100    1.8   340     1.8   999.00    686.7      0.0    -1415       0   999.0        0     0.0
 274   14:00   30.6   100    1.8   322     1.8   999.00    686.7      0.0    -1415       0   999.0        0     0.0
 274   14:05   30.6   100    1.8   339     1.8   999.00    686.6      0.0    -1415       0   999.0        0     0.0
 274   14:10   30.6   100    1.8   324     1.8   999.00    686.7      0.0    -1415       0   999.0        0     0.0
 274   14:15   30.4   100    1.8   316     1.8   999.00    686.9      0.0    -1415       0   999.0        0     0.0
 274   14:20   30.4   100    1.8   324     1.8   999.00    686.8      0.0    -1415       0   999.0        0     0.0
 274   14:25   29.9   100    1.8   324     2.0   999.00    686.8      0.0    -1415       0   999.0        0     0.0
 274   14:30   29.7   100    1.8   330     2.0   999.00    686.9      0.0    -1415       0   999.0        0     0.0
 274   14:35   29.5   100    1.8   327     1.8   999.00    686.9      0.0    -1415       0   999.0        0     0.0
 274   14:40   29.0   100    1.8   307     2.4   999.00    687.0      0.0    -1415       0   999.0        0     0.0
 274   14:45   29.1   100    2.0   296     3.5   999.00    687.0      0.0    -1415       0   999.0        0     0.0
 274   14:50   29.0   100    1.8   320     1.8   999.00    686.9      0.0    -1415       0   999.0        0     0.0
 274   14:55   29.1   100    1.8   342     1.8   999.00    686.9      0.0    -1415       0   999.0        0     0.0
 274   15:00   29.1   100    1.8   325     1.8   999.00    686.9      0.0    -1415       0   999.0        0     0.0
 274   15:05   29.4   100    1.8   332     1.8   999.00    686.9      0.0    -1415       0   999.0        0     0.0
 274   15:10   29.6   100    2.0   300     3.8   999.00    686.9      0.0    -1415       0   999.0        0     0.0
 274   15:15   29.5   100    1.8   302     2.9   999.00    686.9      0.0    -1415       0   999.0        0     0.0
 274   15:20   29.1   100    1.8   309     2.0   999.00    686.9      0.0    -1415       0   999.0        0     0.0
 274   15:25   28.7   100    1.8   308     2.0   999.00    686.9      0.0    -1415       0   999.0        0     0.0
 274   15:30   28.3   100    1.8   317     1.8   999.00    686.9      0.0    -1415       0   999.0        0     0.0
 274   15:35   27.9   100    1.8   323     1.8   999.00    687.0      0.0    -1415       0   999.0        0     0.0
 274   15:40   27.7   100    2.1   304     6.3   999.00    687.1      0.0    -1415       0   999.0        0     0.0
 274   15:45   27.6   100    2.1   306     4.4   999.00    687.1      0.0    -1415       0   999.0        0     0.0
 274   15:50   27.3   100    1.8   306     2.2   999.00    687.0      0.0    -1415       0   999.0        0     0.0

Return to DRI Storm Peak Lab. graphs page.


Western Regional Climate Center,wrcc@dri.edu